sensor_id;sensor_type;location;lat;lon;timestamp;P1;durP1;ratioP1;P2;durP2;ratioP2
25721;SDS011;13578;53.450;15.496;2023-03-08T00:00:47;7.93;;;5.38;;
25721;SDS011;13578;53.450;15.496;2023-03-08T00:03:50;5.57;;;5.15;;
25721;SDS011;13578;53.450;15.496;2023-03-08T00:06:52;7.23;;;5.23;;
25721;SDS011;13578;53.450;15.496;2023-03-08T00:09:53;5.28;;;4.88;;
25721;SDS011;13578;53.450;15.496;2023-03-08T00:12:53;8.68;;;5.22;;
25721;SDS011;13578;53.450;15.496;2023-03-08T00:15:58;18.27;;;5.82;;
25721;SDS011;13578;53.450;15.496;2023-03-08T00:22:00;8.55;;;4.82;;
25721;SDS011;13578;53.450;15.496;2023-03-08T00:25:01;6.30;;;5.35;;
25721;SDS011;13578;53.450;15.496;2023-03-08T00:28:02;6.03;;;5.35;;
25721;SDS011;13578;53.450;15.496;2023-03-08T00:31:04;6.18;;;5.47;;
25721;SDS011;13578;53.450;15.496;2023-03-08T00:34:09;8.48;;;5.32;;
25721;SDS011;13578;53.450;15.496;2023-03-08T00:37:09;10.00;;;5.55;;
25721;SDS011;13578;53.450;15.496;2023-03-08T00:40:10;5.93;;;5.45;;
25721;SDS011;13578;53.450;15.496;2023-03-08T00:43:11;6.03;;;5.07;;
25721;SDS011;13578;53.450;15.496;2023-03-08T00:46:12;14.23;;;6.50;;
25721;SDS011;13578;53.450;15.496;2023-03-08T00:49:13;9.75;;;5.53;;
25721;SDS011;13578;53.450;15.496;2023-03-08T00:52:13;5.65;;;5.22;;
25721;SDS011;13578;53.450;15.496;2023-03-08T00:55:14;6.22;;;5.57;;
25721;SDS011;13578;53.450;15.496;2023-03-08T00:58:15;5.93;;;5.38;;
25721;SDS011;13578;53.450;15.496;2023-03-08T01:01:17;12.18;;;5.72;;
25721;SDS011;13578;53.450;15.496;2023-03-08T01:04:18;5.85;;;5.40;;
25721;SDS011;13578;53.450;15.496;2023-03-08T01:07:19;5.40;;;5.05;;
25721;SDS011;13578;53.450;15.496;2023-03-08T01:10:21;6.03;;;5.60;;
25721;SDS011;13578;53.450;15.496;2023-03-08T01:13:22;11.27;;;6.30;;
25721;SDS011;13578;53.450;15.496;2023-03-08T01:16:26;5.30;;;4.88;;
25721;SDS011;13578;53.450;15.496;2023-03-08T01:19:28;6.13;;;4.90;;
25721;SDS011;13578;53.450;15.496;2023-03-08T01:22:29;12.32;;;5.35;;
25721;SDS011;13578;53.450;15.496;2023-03-08T01:25:29;6.25;;;4.57;;
25721;SDS011;13578;53.450;15.496;2023-03-08T01:28:30;6.28;;;5.53;;
25721;SDS011;13578;53.450;15.496;2023-03-08T01:31:32;6.57;;;5.97;;
25721;SDS011;13578;53.450;15.496;2023-03-08T01:34:33;10.00;;;5.80;;
25721;SDS011;13578;53.450;15.496;2023-03-08T01:37:34;6.28;;;5.80;;
25721;SDS011;13578;53.450;15.496;2023-03-08T01:40:34;6.70;;;5.80;;
25721;SDS011;13578;53.450;15.496;2023-03-08T01:43:36;13.07;;;5.07;;
25721;SDS011;13578;53.450;15.496;2023-03-08T01:46:38;6.13;;;5.53;;
25721;SDS011;13578;53.450;15.496;2023-03-08T01:49:39;8.18;;;5.35;;
25721;SDS011;13578;53.450;15.496;2023-03-08T01:52:40;8.18;;;5.88;;
25721;SDS011;13578;53.450;15.496;2023-03-08T01:55:47;6.97;;;6.30;;
25721;SDS011;13578;53.450;15.496;2023-03-08T01:58:48;11.23;;;6.68;;
25721;SDS011;13578;53.450;15.496;2023-03-08T02:01:53;8.25;;;5.13;;
25721;SDS011;13578;53.450;15.496;2023-03-08T02:04:54;8.32;;;4.93;;
25721;SDS011;13578;53.450;15.496;2023-03-08T02:07:54;9.52;;;5.93;;
25721;SDS011;13578;53.450;15.496;2023-03-08T02:10:55;7.68;;;5.75;;
25721;SDS011;13578;53.450;15.496;2023-03-08T02:13:57;6.63;;;5.65;;
25721;SDS011;13578;53.450;15.496;2023-03-08T02:16:58;5.95;;;5.40;;
25721;SDS011;13578;53.450;15.496;2023-03-08T02:20:00;9.27;;;5.68;;
25721;SDS011;13578;53.450;15.496;2023-03-08T02:23:17;13.02;;;5.60;;
25721;SDS011;13578;53.450;15.496;2023-03-08T02:26:20;5.38;;;4.97;;
25721;SDS011;13578;53.450;15.496;2023-03-08T02:29:21;10.38;;;5.60;;
25721;SDS011;13578;53.450;15.496;2023-03-08T02:32:22;7.47;;;5.70;;
25721;SDS011;13578;53.450;15.496;2023-03-08T02:35:23;9.65;;;5.53;;
25721;SDS011;13578;53.450;15.496;2023-03-08T02:38:23;6.32;;;5.85;;
25721;SDS011;13578;53.450;15.496;2023-03-08T02:41:24;6.90;;;5.63;;
25721;SDS011;13578;53.450;15.496;2023-03-08T02:44:25;5.82;;;5.40;;
25721;SDS011;13578;53.450;15.496;2023-03-08T02:47:26;10.95;;;5.85;;
25721;SDS011;13578;53.450;15.496;2023-03-08T02:50:26;12.73;;;6.15;;
25721;SDS011;13578;53.450;15.496;2023-03-08T02:53:27;9.90;;;5.75;;
25721;SDS011;13578;53.450;15.496;2023-03-08T02:56:28;15.75;;;5.65;;
25721;SDS011;13578;53.450;15.496;2023-03-08T02:59:28;10.80;;;5.72;;
25721;SDS011;13578;53.450;15.496;2023-03-08T03:02:33;7.43;;;5.43;;
25721;SDS011;13578;53.450;15.496;2023-03-08T03:05:34;5.70;;;5.07;;
25721;SDS011;13578;53.450;15.496;2023-03-08T03:08:39;7.07;;;5.82;;
25721;SDS011;13578;53.450;15.496;2023-03-08T03:11:40;11.63;;;5.95;;
25721;SDS011;13578;53.450;15.496;2023-03-08T03:14:40;6.35;;;5.57;;
25721;SDS011;13578;53.450;15.496;2023-03-08T03:17:41;7.78;;;5.55;;
25721;SDS011;13578;53.450;15.496;2023-03-08T03:20:42;5.82;;;5.43;;
25721;SDS011;13578;53.450;15.496;2023-03-08T03:23:42;6.68;;;4.97;;
25721;SDS011;13578;53.450;15.496;2023-03-08T03:26:43;5.88;;;5.43;;
25721;SDS011;13578;53.450;15.496;2023-03-08T03:29:44;5.75;;;5.22;;
25721;SDS011;13578;53.450;15.496;2023-03-08T03:32:45;12.32;;;6.35;;
25721;SDS011;13578;53.450;15.496;2023-03-08T03:35:45;5.82;;;5.22;;
25721;SDS011;13578;53.450;15.496;2023-03-08T03:38:46;6.28;;;5.60;;
25721;SDS011;13578;53.450;15.496;2023-03-08T03:41:47;9.20;;;5.10;;
25721;SDS011;13578;53.450;15.496;2023-03-08T03:44:48;9.25;;;6.68;;
25721;SDS011;13578;53.450;15.496;2023-03-08T03:47:49;9.77;;;6.03;;
25721;SDS011;13578;53.450;15.496;2023-03-08T03:50:56;6.70;;;5.95;;
25721;SDS011;13578;53.450;15.496;2023-03-08T03:54:01;9.43;;;5.95;;
25721;SDS011;13578;53.450;15.496;2023-03-08T03:57:02;7.13;;;5.93;;
25721;SDS011;13578;53.450;15.496;2023-03-08T04:00:03;8.07;;;5.53;;
25721;SDS011;13578;53.450;15.496;2023-03-08T04:03:05;6.50;;;5.75;;
25721;SDS011;13578;53.450;15.496;2023-03-08T04:06:06;6.32;;;5.78;;
25721;SDS011;13578;53.450;15.496;2023-03-08T04:09:11;9.35;;;5.75;;
25721;SDS011;13578;53.450;15.496;2023-03-08T04:12:14;7.13;;;5.60;;
25721;SDS011;13578;53.450;15.496;2023-03-08T04:15:14;6.32;;;5.93;;
25721;SDS011;13578;53.450;15.496;2023-03-08T04:18:15;7.63;;;6.93;;
25721;SDS011;13578;53.450;15.496;2023-03-08T04:21:16;7.82;;;6.93;;
25721;SDS011;13578;53.450;15.496;2023-03-08T04:24:17;12.07;;;5.97;;
25721;SDS011;13578;53.450;15.496;2023-03-08T04:27:17;6.00;;;5.45;;
25721;SDS011;13578;53.450;15.496;2023-03-08T04:30:18;16.08;;;6.07;;
25721;SDS011;13578;53.450;15.496;2023-03-08T04:33:19;6.85;;;6.30;;
25721;SDS011;13578;53.450;15.496;2023-03-08T04:36:20;7.78;;;6.68;;
25721;SDS011;13578;53.450;15.496;2023-03-08T04:39:21;9.98;;;5.93;;
25721;SDS011;13578;53.450;15.496;2023-03-08T04:42:22;6.82;;;6.22;;
25721;SDS011;13578;53.450;15.496;2023-03-08T04:45:23;11.68;;;6.57;;
25721;SDS011;13578;53.450;15.496;2023-03-08T04:48:23;6.60;;;5.95;;
25721;SDS011;13578;53.450;15.496;2023-03-08T04:51:24;15.02;;;6.68;;
25721;SDS011;13578;53.450;15.496;2023-03-08T04:54:26;6.57;;;5.75;;
25721;SDS011;13578;53.450;15.496;2023-03-08T04:57:26;11.40;;;7.03;;
25721;SDS011;13578;53.450;15.496;2023-03-08T05:00:27;6.90;;;6.20;;
25721;SDS011;13578;53.450;15.496;2023-03-08T05:03:27;7.93;;;6.68;;
25721;SDS011;13578;53.450;15.496;2023-03-08T05:06:28;8.70;;;6.82;;
25721;SDS011;13578;53.450;15.496;2023-03-08T05:09:29;7.82;;;7.18;;
25721;SDS011;13578;53.450;15.496;2023-03-08T05:12:30;7.75;;;7.10;;
25721;SDS011;13578;53.450;15.496;2023-03-08T05:15:30;9.00;;;5.78;;
25721;SDS011;13578;53.450;15.496;2023-03-08T05:18:31;7.85;;;6.15;;
25721;SDS011;13578;53.450;15.496;2023-03-08T05:21:32;12.05;;;7.93;;
25721;SDS011;13578;53.450;15.496;2023-03-08T05:24:32;7.40;;;6.05;;
25721;SDS011;13578;53.450;15.496;2023-03-08T05:27:33;8.02;;;7.15;;
25721;SDS011;13578;53.450;15.496;2023-03-08T05:30:34;12.77;;;6.60;;
25721;SDS011;13578;53.450;15.496;2023-03-08T05:33:36;7.45;;;6.75;;
25721;SDS011;13578;53.450;15.496;2023-03-08T05:36:38;11.45;;;7.00;;
25721;SDS011;13578;53.450;15.496;2023-03-08T05:39:39;10.50;;;6.07;;
25721;SDS011;13578;53.450;15.496;2023-03-08T05:42:40;24.70;;;9.05;;
25721;SDS011;13578;53.450;15.496;2023-03-08T05:45:40;7.88;;;6.40;;
25721;SDS011;13578;53.450;15.496;2023-03-08T05:48:41;12.43;;;7.50;;
25721;SDS011;13578;53.450;15.496;2023-03-08T05:51:42;8.43;;;7.50;;
25721;SDS011;13578;53.450;15.496;2023-03-08T05:54:43;15.50;;;6.95;;
25721;SDS011;13578;53.450;15.496;2023-03-08T05:57:43;12.93;;;7.95;;
25721;SDS011;13578;53.450;15.496;2023-03-08T06:00:44;13.50;;;7.28;;
25721;SDS011;13578;53.450;15.496;2023-03-08T06:03:45;16.17;;;7.25;;
25721;SDS011;13578;53.450;15.496;2023-03-08T06:06:48;10.40;;;6.72;;
25721;SDS011;13578;53.450;15.496;2023-03-08T06:09:48;7.75;;;6.55;;
25721;SDS011;13578;53.450;15.496;2023-03-08T06:12:50;14.50;;;7.95;;
25721;SDS011;13578;53.450;15.496;2023-03-08T06:15:55;15.60;;;7.07;;
25721;SDS011;13578;53.450;15.496;2023-03-08T06:18:56;7.50;;;6.80;;
25721;SDS011;13578;53.450;15.496;2023-03-08T06:21:57;10.43;;;7.00;;
25721;SDS011;13578;53.450;15.496;2023-03-08T06:24:58;13.27;;;7.70;;
25721;SDS011;13578;53.450;15.496;2023-03-08T06:27:58;10.07;;;7.60;;
25721;SDS011;13578;53.450;15.496;2023-03-08T06:30:59;17.05;;;6.72;;
25721;SDS011;13578;53.450;15.496;2023-03-08T06:34:00;12.75;;;7.07;;
25721;SDS011;13578;53.450;15.496;2023-03-08T06:37:01;11.15;;;8.63;;
25721;SDS011;13578;53.450;15.496;2023-03-08T06:40:01;15.85;;;7.85;;
25721;SDS011;13578;53.450;15.496;2023-03-08T06:43:04;12.25;;;7.13;;
25721;SDS011;13578;53.450;15.496;2023-03-08T06:46:05;11.13;;;8.45;;
25721;SDS011;13578;53.450;15.496;2023-03-08T06:49:08;10.45;;;7.70;;
25721;SDS011;13578;53.450;15.496;2023-03-08T06:52:09;13.00;;;8.10;;
25721;SDS011;13578;53.450;15.496;2023-03-08T06:55:09;15.23;;;8.20;;
25721;SDS011;13578;53.450;15.496;2023-03-08T06:58:10;13.18;;;9.73;;
25721;SDS011;13578;53.450;15.496;2023-03-08T07:01:11;13.63;;;8.98;;
25721;SDS011;13578;53.450;15.496;2023-03-08T07:04:13;12.73;;;8.80;;
25721;SDS011;13578;53.450;15.496;2023-03-08T07:07:13;11.93;;;8.68;;
25721;SDS011;13578;53.450;15.496;2023-03-08T07:10:15;14.77;;;9.23;;
25721;SDS011;13578;53.450;15.496;2023-03-08T07:13:16;16.70;;;8.85;;
25721;SDS011;13578;53.450;15.496;2023-03-08T07:16:17;12.65;;;9.65;;
25721;SDS011;13578;53.450;15.496;2023-03-08T07:19:18;9.82;;;8.82;;
25721;SDS011;13578;53.450;15.496;2023-03-08T07:22:19;12.10;;;10.50;;
25721;SDS011;13578;53.450;15.496;2023-03-08T07:25:20;14.77;;;9.60;;
25721;SDS011;13578;53.450;15.496;2023-03-08T07:28:21;15.30;;;10.38;;
25721;SDS011;13578;53.450;15.496;2023-03-08T07:31:22;12.35;;;9.95;;
25721;SDS011;13578;53.450;15.496;2023-03-08T07:34:23;11.52;;;9.10;;
25721;SDS011;13578;53.450;15.496;2023-03-08T07:37:23;19.73;;;11.23;;
25721;SDS011;13578;53.450;15.496;2023-03-08T07:40:24;27.33;;;11.45;;
25721;SDS011;13578;53.450;15.496;2023-03-08T07:43:25;16.65;;;11.60;;
25721;SDS011;13578;53.450;15.496;2023-03-08T07:46:25;25.33;;;11.55;;
25721;SDS011;13578;53.450;15.496;2023-03-08T07:49:27;16.15;;;11.20;;
25721;SDS011;13578;53.450;15.496;2023-03-08T07:52:28;13.15;;;8.18;;
25721;SDS011;13578;53.450;15.496;2023-03-08T07:55:29;16.83;;;11.50;;
25721;SDS011;13578;53.450;15.496;2023-03-08T07:58:30;12.40;;;10.57;;
25721;SDS011;13578;53.450;15.496;2023-03-08T08:01:30;15.32;;;10.90;;
25721;SDS011;13578;53.450;15.496;2023-03-08T08:04:33;20.42;;;9.95;;
25721;SDS011;13578;53.450;15.496;2023-03-08T08:07:34;14.13;;;10.23;;
25721;SDS011;13578;53.450;15.496;2023-03-08T08:10:35;13.48;;;10.65;;
25721;SDS011;13578;53.450;15.496;2023-03-08T08:13:36;18.95;;;11.80;;
25721;SDS011;13578;53.450;15.496;2023-03-08T08:16:36;25.60;;;11.48;;
25721;SDS011;13578;53.450;15.496;2023-03-08T08:19:37;20.00;;;9.77;;
25721;SDS011;13578;53.450;15.496;2023-03-08T08:22:38;23.92;;;10.63;;
25721;SDS011;13578;53.450;15.496;2023-03-08T08:25:38;13.45;;;9.85;;
25721;SDS011;13578;53.450;15.496;2023-03-08T08:28:39;14.98;;;8.77;;
25721;SDS011;13578;53.450;15.496;2023-03-08T08:31:42;15.35;;;10.90;;
25721;SDS011;13578;53.450;15.496;2023-03-08T08:34:42;20.02;;;9.50;;
25721;SDS011;13578;53.450;15.496;2023-03-08T08:37:43;17.33;;;9.93;;
25721;SDS011;13578;53.450;15.496;2023-03-08T08:40:43;26.63;;;10.02;;
25721;SDS011;13578;53.450;15.496;2023-03-08T08:43:45;24.02;;;10.90;;
25721;SDS011;13578;53.450;15.496;2023-03-08T08:46:46;17.08;;;11.30;;
25721;SDS011;13578;53.450;15.496;2023-03-08T08:49:47;12.23;;;10.80;;
25721;SDS011;13578;53.450;15.496;2023-03-08T08:52:47;18.05;;;11.23;;
25721;SDS011;13578;53.450;15.496;2023-03-08T08:55:48;17.20;;;12.15;;
25721;SDS011;13578;53.450;15.496;2023-03-08T08:58:48;26.05;;;13.45;;
25721;SDS011;13578;53.450;15.496;2023-03-08T09:01:49;22.67;;;13.98;;
25721;SDS011;13578;53.450;15.496;2023-03-08T09:04:50;24.98;;;15.50;;
25721;SDS011;13578;53.450;15.496;2023-03-08T09:07:54;27.42;;;14.55;;
25721;SDS011;13578;53.450;15.496;2023-03-08T09:11:00;20.00;;;14.32;;
25721;SDS011;13578;53.450;15.496;2023-03-08T09:14:03;28.00;;;16.40;;
25721;SDS011;13578;53.450;15.496;2023-03-08T09:17:04;24.40;;;15.85;;
25721;SDS011;13578;53.450;15.496;2023-03-08T09:20:06;29.05;;;16.48;;
25721;SDS011;13578;53.450;15.496;2023-03-08T09:23:10;24.05;;;15.43;;
25721;SDS011;13578;53.450;15.496;2023-03-08T09:26:11;26.90;;;14.88;;
25721;SDS011;13578;53.450;15.496;2023-03-08T09:29:11;30.42;;;14.48;;
25721;SDS011;13578;53.450;15.496;2023-03-08T09:32:12;23.60;;;14.50;;
25721;SDS011;13578;53.450;15.496;2023-03-08T09:35:13;32.22;;;15.13;;
25721;SDS011;13578;53.450;15.496;2023-03-08T09:38:14;22.40;;;14.50;;
25721;SDS011;13578;53.450;15.496;2023-03-08T09:53:52;21.50;;;13.82;;
25721;SDS011;13578;53.450;15.496;2023-03-08T09:56:58;37.63;;;18.23;;
25721;SDS011;13578;53.450;15.496;2023-03-08T10:00:04;30.40;;;18.20;;
25721;SDS011;13578;53.450;15.496;2023-03-08T10:16:36;28.75;;;17.50;;
25721;SDS011;13578;53.450;15.496;2023-03-08T10:22:50;33.15;;;17.10;;
25721;SDS011;13578;53.450;15.496;2023-03-08T10:25:56;25.98;;;14.07;;
25721;SDS011;13578;53.450;15.496;2023-03-08T10:28:58;21.98;;;13.60;;
25721;SDS011;13578;53.450;15.496;2023-03-08T10:31:59;19.02;;;12.27;;
25721;SDS011;13578;53.450;15.496;2023-03-08T10:35:00;16.55;;;10.80;;
25721;SDS011;13578;53.450;15.496;2023-03-08T10:38:02;17.70;;;12.57;;
25721;SDS011;13578;53.450;15.496;2023-03-08T10:41:05;16.27;;;11.10;;
25721;SDS011;13578;53.450;15.496;2023-03-08T10:47:51;15.90;;;11.23;;
25721;SDS011;13578;53.450;15.496;2023-03-08T10:51:01;20.65;;;9.82;;
25721;SDS011;13578;53.450;15.496;2023-03-08T10:54:04;12.93;;;10.07;;
25721;SDS011;13578;53.450;15.496;2023-03-08T10:57:10;10.25;;;8.02;;
25721;SDS011;13578;53.450;15.496;2023-03-08T11:03:20;22.05;;;8.98;;
25721;SDS011;13578;53.450;15.496;2023-03-08T11:06:23;17.73;;;8.23;;
25721;SDS011;13578;53.450;15.496;2023-03-08T11:12:27;12.15;;;8.38;;
25721;SDS011;13578;53.450;15.496;2023-03-08T11:15:28;11.50;;;7.57;;
25721;SDS011;13578;53.450;15.496;2023-03-08T11:34:49;14.55;;;9.10;;
25721;SDS011;13578;53.450;15.496;2023-03-08T11:38:08;12.63;;;9.77;;
25721;SDS011;13578;53.450;15.496;2023-03-08T11:41:23;9.85;;;8.25;;
25721;SDS011;13578;53.450;15.496;2023-03-08T11:55:14;9.15;;;8.15;;
25721;SDS011;13578;53.450;15.496;2023-03-08T11:58:21;18.35;;;7.28;;
25721;SDS011;13578;53.450;15.496;2023-03-08T12:01:28;12.27;;;6.75;;
25721;SDS011;13578;53.450;15.496;2023-03-08T12:08:14;13.98;;;6.20;;
25721;SDS011;13578;53.450;15.496;2023-03-08T12:14:43;8.10;;;5.80;;
25721;SDS011;13578;53.450;15.496;2023-03-08T12:18:00;10.50;;;6.28;;
25721;SDS011;13578;53.450;15.496;2023-03-08T12:21:19;13.25;;;6.78;;
25721;SDS011;13578;53.450;15.496;2023-03-08T12:27:51;14.00;;;6.13;;
25721;SDS011;13578;53.450;15.496;2023-03-08T12:37:28;11.38;;;6.18;;
25721;SDS011;13578;53.450;15.496;2023-03-08T12:40:40;11.05;;;5.97;;
25721;SDS011;13578;53.450;15.496;2023-03-08T12:44:01;6.80;;;5.47;;
25721;SDS011;13578;53.450;15.496;2023-03-08T12:50:14;7.93;;;4.75;;
25721;SDS011;13578;53.450;15.496;2023-03-08T12:56:32;10.10;;;5.72;;
25721;SDS011;13578;53.450;15.496;2023-03-08T12:59:36;5.65;;;5.13;;
25721;SDS011;13578;53.450;15.496;2023-03-08T13:02:38;9.20;;;4.80;;
25721;SDS011;13578;53.450;15.496;2023-03-08T13:05:40;6.20;;;5.57;;
25721;SDS011;13578;53.450;15.496;2023-03-08T13:08:48;5.38;;;4.88;;
25721;SDS011;13578;53.450;15.496;2023-03-08T13:12:00;8.27;;;5.63;;
25721;SDS011;13578;53.450;15.496;2023-03-08T13:15:19;10.82;;;7.57;;
25721;SDS011;13578;53.450;15.496;2023-03-08T13:18:22;10.10;;;5.60;;
25721;SDS011;13578;53.450;15.496;2023-03-08T13:21:33;9.52;;;6.05;;
25721;SDS011;13578;53.450;15.496;2023-03-08T13:24:42;7.95;;;5.55;;
25721;SDS011;13578;53.450;15.496;2023-03-08T13:28:09;11.38;;;7.32;;
25721;SDS011;13578;53.450;15.496;2023-03-08T13:31:16;6.35;;;5.75;;
25721;SDS011;13578;53.450;15.496;2023-03-08T13:34:27;11.63;;;5.50;;
25721;SDS011;13578;53.450;15.496;2023-03-08T13:37:30;7.63;;;4.93;;
25721;SDS011;13578;53.450;15.496;2023-03-08T13:40:31;8.68;;;5.40;;
25721;SDS011;13578;53.450;15.496;2023-03-08T13:43:32;4.75;;;4.35;;
25721;SDS011;13578;53.450;15.496;2023-03-08T13:46:36;6.63;;;5.00;;
25721;SDS011;13578;53.450;15.496;2023-03-08T13:49:41;5.68;;;4.90;;
25721;SDS011;13578;53.450;15.496;2023-03-08T13:52:44;7.55;;;4.55;;
25721;SDS011;13578;53.450;15.496;2023-03-08T13:55:47;6.55;;;4.68;;
25721;SDS011;13578;53.450;15.496;2023-03-08T13:58:51;7.07;;;5.10;;
25721;SDS011;13578;53.450;15.496;2023-03-08T14:01:54;5.43;;;5.00;;
25721;SDS011;13578;53.450;15.496;2023-03-08T14:04:55;9.65;;;5.13;;
25721;SDS011;13578;53.450;15.496;2023-03-08T14:07:58;8.63;;;4.97;;
25721;SDS011;13578;53.450;15.496;2023-03-08T14:11:03;7.15;;;4.93;;
25721;SDS011;13578;53.450;15.496;2023-03-08T14:14:13;6.73;;;5.13;;
25721;SDS011;13578;53.450;15.496;2023-03-08T14:17:23;14.70;;;6.00;;
25721;SDS011;13578;53.450;15.496;2023-03-08T14:20:26;5.85;;;4.85;;
25721;SDS011;13578;53.450;15.496;2023-03-08T14:23:27;5.85;;;4.65;;
25721;SDS011;13578;53.450;15.496;2023-03-08T14:26:31;6.50;;;4.53;;
25721;SDS011;13578;53.450;15.496;2023-03-08T14:29:34;9.93;;;5.30;;
25721;SDS011;13578;53.450;15.496;2023-03-08T14:32:35;5.88;;;5.07;;
25721;SDS011;13578;53.450;15.496;2023-03-08T14:35:38;5.05;;;4.55;;
25721;SDS011;13578;53.450;15.496;2023-03-08T14:38:40;7.40;;;5.85;;
25721;SDS011;13578;53.450;15.496;2023-03-08T14:41:41;5.43;;;4.97;;
25721;SDS011;13578;53.450;15.496;2023-03-08T14:44:41;10.50;;;5.18;;
25721;SDS011;13578;53.450;15.496;2023-03-08T14:47:54;6.97;;;4.85;;
25721;SDS011;13578;53.450;15.496;2023-03-08T14:50:58;6.30;;;4.78;;
25721;SDS011;13578;53.450;15.496;2023-03-08T14:54:05;6.00;;;4.70;;
25721;SDS011;13578;53.450;15.496;2023-03-08T14:57:23;6.22;;;5.63;;
25721;SDS011;13578;53.450;15.496;2023-03-08T15:00:26;6.20;;;5.10;;
25721;SDS011;13578;53.450;15.496;2023-03-08T15:03:28;5.65;;;5.13;;
25721;SDS011;13578;53.450;15.496;2023-03-08T15:06:32;5.43;;;4.90;;
25721;SDS011;13578;53.450;15.496;2023-03-08T15:09:34;10.23;;;4.60;;
25721;SDS011;13578;53.450;15.496;2023-03-08T15:12:34;8.43;;;4.25;;
25721;SDS011;13578;53.450;15.496;2023-03-08T15:15:35;11.57;;;5.07;;
25721;SDS011;13578;53.450;15.496;2023-03-08T15:18:36;9.50;;;5.45;;
25721;SDS011;13578;53.450;15.496;2023-03-08T15:21:36;5.50;;;4.55;;
25721;SDS011;13578;53.450;15.496;2023-03-08T15:24:37;9.65;;;5.38;;
25721;SDS011;13578;53.450;15.496;2023-03-08T15:27:38;11.82;;;5.75;;
25721;SDS011;13578;53.450;15.496;2023-03-08T15:30:39;9.10;;;7.13;;
25721;SDS011;13578;53.450;15.496;2023-03-08T15:33:40;8.10;;;5.57;;
25721;SDS011;13578;53.450;15.496;2023-03-08T15:36:40;13.98;;;6.18;;
25721;SDS011;13578;53.450;15.496;2023-03-08T15:39:41;9.60;;;5.05;;
25721;SDS011;13578;53.450;15.496;2023-03-08T15:42:41;8.93;;;5.55;;
25721;SDS011;13578;53.450;15.496;2023-03-08T15:45:42;10.23;;;6.70;;
25721;SDS011;13578;53.450;15.496;2023-03-08T15:48:43;9.15;;;6.28;;
25721;SDS011;13578;53.450;15.496;2023-03-08T15:51:44;11.23;;;6.07;;
25721;SDS011;13578;53.450;15.496;2023-03-08T15:54:47;10.35;;;6.75;;
25721;SDS011;13578;53.450;15.496;2023-03-08T15:57:48;12.25;;;6.78;;
25721;SDS011;13578;53.450;15.496;2023-03-08T16:00:49;9.35;;;6.13;;
25721;SDS011;13578;53.450;15.496;2023-03-08T16:03:51;8.73;;;7.70;;
25721;SDS011;13578;53.450;15.496;2023-03-08T16:06:53;17.63;;;8.55;;
25721;SDS011;13578;53.450;15.496;2023-03-08T16:09:54;14.93;;;8.93;;
25721;SDS011;13578;53.450;15.496;2023-03-08T16:12:54;13.73;;;10.23;;
25721;SDS011;13578;53.450;15.496;2023-03-08T16:15:59;13.52;;;10.07;;
25721;SDS011;13578;53.450;15.496;2023-03-08T16:19:01;16.98;;;11.65;;
25721;SDS011;13578;53.450;15.496;2023-03-08T16:22:02;17.40;;;11.27;;
25721;SDS011;13578;53.450;15.496;2023-03-08T16:25:03;21.20;;;11.77;;
25721;SDS011;13578;53.450;15.496;2023-03-08T16:28:05;18.23;;;11.85;;
25721;SDS011;13578;53.450;15.496;2023-03-08T16:31:06;21.05;;;13.15;;
25721;SDS011;13578;53.450;15.496;2023-03-08T16:34:08;18.70;;;12.15;;
25721;SDS011;13578;53.450;15.496;2023-03-08T16:37:10;18.17;;;12.98;;
25721;SDS011;13578;53.450;15.496;2023-03-08T16:40:11;21.45;;;12.77;;
25721;SDS011;13578;53.450;15.496;2023-03-08T16:43:13;19.70;;;14.10;;
25721;SDS011;13578;53.450;15.496;2023-03-08T16:46:15;26.55;;;13.13;;
25721;SDS011;13578;53.450;15.496;2023-03-08T16:49:18;22.98;;;11.80;;
25721;SDS011;13578;53.450;15.496;2023-03-08T16:52:19;18.23;;;13.30;;
25721;SDS011;13578;53.450;15.496;2023-03-08T16:55:20;21.45;;;13.20;;
25721;SDS011;13578;53.450;15.496;2023-03-08T16:58:21;17.38;;;12.65;;
25721;SDS011;13578;53.450;15.496;2023-03-08T17:01:22;15.98;;;11.15;;
25721;SDS011;13578;53.450;15.496;2023-03-08T17:04:24;20.70;;;13.82;;
25721;SDS011;13578;53.450;15.496;2023-03-08T17:07:25;28.85;;;14.23;;
25721;SDS011;13578;53.450;15.496;2023-03-08T17:10:25;22.38;;;13.65;;
25721;SDS011;13578;53.450;15.496;2023-03-08T17:13:26;21.33;;;13.40;;
25721;SDS011;13578;53.450;15.496;2023-03-08T17:16:27;22.67;;;12.63;;
25721;SDS011;13578;53.450;15.496;2023-03-08T17:19:29;27.02;;;13.30;;
25721;SDS011;13578;53.450;15.496;2023-03-08T17:22:30;19.83;;;12.68;;
25721;SDS011;13578;53.450;15.496;2023-03-08T17:25:33;23.73;;;12.23;;
25721;SDS011;13578;53.450;15.496;2023-03-08T17:28:35;20.65;;;12.60;;
25721;SDS011;13578;53.450;15.496;2023-03-08T17:31:36;16.48;;;11.85;;
25721;SDS011;13578;53.450;15.496;2023-03-08T17:34:37;19.90;;;11.73;;
25721;SDS011;13578;53.450;15.496;2023-03-08T17:37:37;18.30;;;12.57;;
25721;SDS011;13578;53.450;15.496;2023-03-08T17:40:40;19.85;;;13.73;;
25721;SDS011;13578;53.450;15.496;2023-03-08T17:43:41;25.35;;;12.45;;
25721;SDS011;13578;53.450;15.496;2023-03-08T17:46:42;18.65;;;11.68;;
25721;SDS011;13578;53.450;15.496;2023-03-08T17:49:42;16.33;;;11.07;;
25721;SDS011;13578;53.450;15.496;2023-03-08T17:52:44;14.57;;;9.90;;
25721;SDS011;13578;53.450;15.496;2023-03-08T17:55:45;17.02;;;11.45;;
25721;SDS011;13578;53.450;15.496;2023-03-08T17:58:46;20.55;;;10.80;;
25721;SDS011;13578;53.450;15.496;2023-03-08T18:01:48;19.20;;;11.63;;
25721;SDS011;13578;53.450;15.496;2023-03-08T18:04:49;15.85;;;11.25;;
25721;SDS011;13578;53.450;15.496;2023-03-08T18:07:50;17.73;;;11.07;;
25721;SDS011;13578;53.450;15.496;2023-03-08T18:10:50;15.75;;;10.65;;
25721;SDS011;13578;53.450;15.496;2023-03-08T18:13:51;14.40;;;10.60;;
25721;SDS011;13578;53.450;15.496;2023-03-08T18:16:52;15.20;;;10.50;;
25721;SDS011;13578;53.450;15.496;2023-03-08T18:19:52;17.20;;;10.43;;
25721;SDS011;13578;53.450;15.496;2023-03-08T18:22:53;15.48;;;10.32;;
25721;SDS011;13578;53.450;15.496;2023-03-08T18:25:54;13.63;;;9.95;;
25721;SDS011;13578;53.450;15.496;2023-03-08T18:28:57;20.40;;;9.57;;
25721;SDS011;13578;53.450;15.496;2023-03-08T18:31:58;12.77;;;9.25;;
25721;SDS011;13578;53.450;15.496;2023-03-08T18:34:58;21.77;;;9.88;;
25721;SDS011;13578;53.450;15.496;2023-03-08T18:37:59;12.18;;;9.07;;
25721;SDS011;13578;53.450;15.496;2023-03-08T18:41:09;23.48;;;10.80;;
25721;SDS011;13578;53.450;15.496;2023-03-08T18:44:11;15.57;;;9.30;;
25721;SDS011;13578;53.450;15.496;2023-03-08T18:47:12;17.13;;;9.30;;
25721;SDS011;13578;53.450;15.496;2023-03-08T18:50:13;14.38;;;9.85;;
25721;SDS011;13578;53.450;15.496;2023-03-08T18:53:13;19.50;;;10.18;;
25721;SDS011;13578;53.450;15.496;2023-03-08T18:56:17;12.23;;;8.70;;
25721;SDS011;13578;53.450;15.496;2023-03-08T18:59:18;17.30;;;10.52;;
25721;SDS011;13578;53.450;15.496;2023-03-08T19:02:19;13.68;;;9.70;;
25721;SDS011;13578;53.450;15.496;2023-03-08T19:05:23;22.85;;;11.82;;
25721;SDS011;13578;53.450;15.496;2023-03-08T19:08:24;20.33;;;10.88;;
25721;SDS011;13578;53.450;15.496;2023-03-08T19:11:25;27.52;;;11.98;;
25721;SDS011;13578;53.450;15.496;2023-03-08T19:14:26;17.40;;;10.15;;
25721;SDS011;13578;53.450;15.496;2023-03-08T19:17:28;22.85;;;11.82;;
25721;SDS011;13578;53.450;15.496;2023-03-08T19:20:28;22.77;;;11.20;;